Time;durP1;ratioP1;P1;durP2;ratioP2;P2;SDS_P1;SDS_P2;PMS_P1;PMS_P2;Temp;Humidity;BMP_temperature;BMP_pressure;BME280_temperature;BME280_humidity;BME280_pressure;Samples;Min_cycle;Max_cycle;Signal;HPM_P1;HPM_P2
2022/08/03 00:01:40;;;;;;;37.20;17.80;;;;;;;23.40;68.10;98725.98;25128;1312;3027458;-68
2022/08/03 00:04:09;;;;;;;32.80;17.10;;;;;;;23.82;66.36;98730.50;25214;1312;3052085;-69
2022/08/03 00:06:39;;;;;;;35.60;17.70;;;;;;;23.83;65.96;98725.67;25153;1313;3027698;-68
2022/08/03 00:09:08;;;;;;;30.90;17.30;;;;;;;23.66;65.98;98725.10;25160;1312;3028685;-65
2022/08/03 00:11:37;;;;;;;38.10;18.90;;;;;;;23.45;66.69;98724.95;25217;1312;3052836;-66
2022/08/03 00:14:06;;;;;;;31.90;17.40;;;;;;;23.29;66.94;98722.48;25173;1312;3028547;-68
2022/08/03 00:16:35;;;;;;;34.10;17.20;;;;;;;23.18;66.98;98719.91;25195;1312;3051060;-68
2022/08/03 00:19:04;;;;;;;36.30;17.20;;;;;;;23.10;67.10;98717.73;25161;1312;3026313;-67
2022/08/03 00:21:34;;;;;;;36.40;18.00;;;;;;;23.09;67.00;98714.81;25196;1312;3057777;-67
2022/08/03 00:24:03;;;;;;;29.80;13.70;;;;;;;23.08;67.06;98715.39;25145;1312;3027238;-67
2022/08/03 00:26:32;;;;;;;31.90;16.20;;;;;;;23.68;66.65;98717.90;25163;1312;3052298;-67
2022/08/03 00:29:01;;;;;;;34.10;16.80;;;;;;;24.18;65.32;98710.89;25129;1312;3029529;-67
2022/08/03 00:31:30;;;;;;;31.70;17.30;;;;;;;24.18;65.22;98713.13;25173;1312;3051519;-68
2022/08/03 00:33:59;;;;;;;34.50;19.10;;;;;;;24.01;65.67;98718.58;25182;1312;3028439;-67
2022/08/03 00:36:28;;;;;;;36.70;18.10;;;;;;;23.78;66.50;98722.09;25187;1312;3048922;-66
2022/08/03 00:38:57;;;;;;;31.70;17.80;;;;;;;23.54;67.26;98721.17;25147;1312;3028553;-65
2022/08/03 00:41:26;;;;;;;38.50;18.70;;;;;;;23.35;68.06;98721.70;25159;1312;3066455;-66
2022/08/03 00:43:55;;;;;;;32.30;17.70;;;;;;;23.17;68.92;98726.86;25185;1312;3027528;-67
2022/08/03 00:46:24;;;;;;;25.50;13.90;;;;;;;23.00;69.77;98725.05;25169;1312;3050607;-66
2022/08/03 00:48:53;;;;;;;28.60;16.20;;;;;;;23.46;68.59;98725.08;25176;1312;3026994;-68
2022/08/03 00:51:22;;;;;;;37.90;17.50;;;;;;;23.92;67.31;98720.30;25367;1312;3054796;-64
2022/08/03 00:53:51;;;;;;;35.70;18.00;;;;;;;23.93;67.17;98722.77;25481;1312;3026489;-65
2022/08/03 00:56:20;;;;;;;35.80;20.10;;;;;;;23.74;67.51;98729.73;25234;1312;3049459;-68
2022/08/03 00:58:49;;;;;;;45.90;20.60;;;;;;;23.51;67.89;98727.17;25105;1313;3026639;-66
2022/08/03 01:01:18;;;;;;;47.50;20.80;;;;;;;23.18;69.25;98724.09;25175;1312;3058563;-67
2022/08/03 01:03:47;;;;;;;37.80;20.60;;;;;;;22.76;71.23;98727.44;25133;1313;3026714;-66
2022/08/03 01:06:17;;;;;;;28.60;15.00;;;;;;;22.49;72.27;98727.55;25192;1312;3052110;-65
2022/08/03 01:09:16;;;;;;;27.90;16.10;;;;;;;22.97;71.28;98723.27;25112;1312;3029706;-67
2022/08/03 01:11:55;;;;;;;30.60;16.80;;;;;;;23.28;70.00;98726.43;25124;1312;3050328;-68
2022/08/03 01:14:31;;;;;;;34.40;17.80;;;;;;;23.15;70.40;98732.42;25178;1312;3055371;-66
2022/08/03 01:17:06;;;;;;;36.50;18.10;;;;;;;22.84;71.66;98727.19;25172;1312;3051048;-66
2022/08/03 01:19:59;;;;;;;35.60;18.70;;;;;;;22.69;72.14;98725.14;25133;1312;3071485;-67
2022/08/03 01:22:49;;;;;;;38.00;18.50;;;;;;;22.48;72.82;98724.21;25215;1313;3052247;-66
2022/08/03 01:25:31;;;;;;;25.00;13.30;;;;;;;22.35;73.72;98724.91;25151;1312;3052200;-67
2022/08/03 01:28:14;;;;;;;30.90;15.40;;;;;;;22.95;72.10;98722.14;25212;1313;3052529;-65
2022/08/03 01:30:43;;;;;;;42.20;18.10;;;;;;;23.25;70.73;98720.59;25161;1312;3056109;-67
2022/08/03 01:33:16;;;;;;;44.50;22.80;;;;;;;23.15;70.75;98721.36;25171;1312;3026851;-68
2022/08/03 01:35:49;;;;;;;61.30;28.10;;;;;;;22.98;71.10;98718.70;25155;1313;3054387;-68
2022/08/03 01:38:33;;;;;;;79.00;32.20;;;;;;;22.76;71.87;98718.70;25184;1312;3027319;-67
2022/08/03 01:41:04;;;;;;;69.60;28.40;;;;;;;22.53;72.78;98716.52;25199;1312;3049975;-67
2022/08/03 01:43:33;;;;;;;62.00;25.00;;;;;;;22.36;73.81;98717.55;25187;1312;3026374;-66
2022/08/03 01:46:03;;;;;;;65.50;27.20;;;;;;;22.81;72.39;98715.58;25213;1312;3026672;-68
2022/08/03 01:48:32;;;;;;;57.20;26.90;;;;;;;23.19;71.07;98718.27;25130;1313;3052360;-65
2022/08/03 01:51:01;;;;;;;75.00;31.20;;;;;;;23.15;70.94;98718.36;25121;1312;3028259;-65
2022/08/03 01:53:30;;;;;;;72.90;31.80;;;;;;;22.99;71.33;98717.89;25196;1312;3057879;-66
2022/08/03 01:56:00;;;;;;;67.20;31.30;;;;;;;22.77;71.85;98714.60;25202;1312;3027516;-65
2022/08/03 01:58:28;;;;;;;67.20;29.80;;;;;;;22.55;72.34;98714.12;25156;1312;3026504;-68
2022/08/03 02:00:59;;;;;;;52.70;22.80;;;;;;;22.39;72.90;98712.83;25168;1312;3054262;-66
2022/08/03 02:03:28;;;;;;;51.80;24.10;;;;;;;22.83;72.08;98713.78;25102;1313;3029874;-66
2022/08/03 02:05:58;;;;;;;54.60;24.30;;;;;;;23.14;70.66;98716.37;25161;1312;3026270;-66
2022/08/03 02:08:27;;;;;;;56.00;25.40;;;;;;;23.11;70.62;98716.55;25161;1312;3027338;-67
2022/08/03 02:10:56;;;;;;;52.00;24.90;;;;;;;22.92;70.98;98715.27;25137;1312;3048977;-68
2022/08/03 02:13:26;;;;;;;48.00;26.90;;;;;;;22.66;71.75;98719.89;25156;1312;3026822;-66
2022/08/03 02:15:54;;;;;;;44.20;25.20;;;;;;;22.47;72.10;98724.39;25169;1312;3026573;-68
2022/08/03 02:18:23;;;;;;;34.90;17.80;;;;;;;22.27;72.86;98726.98;25109;1315;3048776;-67
2022/08/03 02:20:52;;;;;;;32.00;19.20;;;;;;;22.65;72.14;98724.85;25145;1312;3027345;-68
2022/08/03 02:23:21;;;;;;;41.10;21.50;;;;;;;22.99;70.63;98718.85;25128;1315;3055274;-67
2022/08/03 02:25:53;;;;;;;40.40;21.20;;;;;;;22.93;70.17;98717.92;25140;1313;3027260;-67
2022/08/03 02:28:27;;;;;;;42.10;22.00;;;;;;;22.74;70.56;98714.81;25143;1312;3051094;-66
2022/08/03 02:30:56;;;;;;;42.00;23.20;;;;;;;22.47;71.30;98715.30;25212;1312;3055423;-66
2022/08/03 02:33:33;;;;;;;44.40;23.90;;;;;;;22.24;71.89;98709.64;25111;1313;3026298;-66
2022/08/03 02:36:02;;;;;;;40.60;21.80;;;;;;;22.06;72.36;98709.14;25173;1312;3055916;-68
2022/08/03 02:38:33;;;;;;;32.20;17.20;;;;;;;21.87;73.35;98712.22;25170;1312;3030021;-67
2022/08/03 02:41:12;;;;;;;43.60;19.20;;;;;;;22.33;71.94;98704.49;25154;1312;3026785;-68
2022/08/03 02:43:42;;;;;;;35.20;19.70;;;;;;;22.75;70.07;98708.41;25199;1312;3055060;-66
2022/08/03 02:46:12;;;;;;;33.70;19.70;;;;;;;22.77;69.61;98705.50;25201;1312;3026176;-67
2022/08/03 02:48:41;;;;;;;39.50;22.40;;;;;;;22.64;69.61;98706.59;25166;1313;3026320;-67
2022/08/03 02:51:10;;;;;;;36.60;21.80;;;;;;;22.43;70.07;98707.67;25109;1312;3026566;-69
2022/08/03 02:53:39;;;;;;;49.10;23.60;;;;;;;22.19;71.02;98708.44;25167;1312;3051850;-67
2022/08/03 02:56:08;;;;;;;37.10;22.30;;;;;;;22.01;71.76;98705.85;25117;1313;3027062;-65
2022/08/03 02:58:38;;;;;;;29.50;17.20;;;;;;;21.90;72.40;98710.33;25150;1312;3054887;-68
2022/08/03 03:01:07;;;;;;;31.80;18.60;;;;;;;22.39;71.16;98705.06;25187;1312;3026640;-65
2022/08/03 03:03:36;;;;;;;33.80;19.40;;;;;;;22.78;69.84;98705.55;25127;1315;3026262;-65
2022/08/03 03:06:06;;;;;;;36.80;20.60;;;;;;;22.73;69.55;98705.89;25210;1312;3052706;-68
2022/08/03 03:08:35;;;;;;;44.80;21.10;;;;;;;22.56;70.12;98706.88;25133;1312;3026581;-67
2022/08/03 03:11:05;;;;;;;35.40;20.80;;;;;;;22.31;70.58;98707.33;25104;1313;3026644;-65
2022/08/03 03:13:34;;;;;;;35.90;20.40;;;;;;;22.15;71.19;98709.84;25154;1312;3027067;-65
2022/08/03 03:16:05;;;;;;;40.10;21.10;;;;;;;22.02;71.66;98707.28;25172;1312;3026333;-66
2022/08/03 03:18:34;;;;;;;28.80;15.70;;;;;;;21.92;72.50;98708.51;25158;1313;3069108;-68
2022/08/03 03:21:03;;;;;;;32.00;18.10;;;;;;;22.40;71.30;98704.74;25150;1312;3029374;-67
2022/08/03 03:23:34;;;;;;;31.60;19.10;;;;;;;22.78;70.01;98713.95;25180;1313;3053857;-67
2022/08/03 03:26:04;;;;;;;41.10;20.30;;;;;;;22.78;69.98;98713.20;25170;1312;3026482;-67
2022/08/03 03:28:38;;;;;;;33.20;21.20;;;;;;;22.68;70.24;98714.88;25156;1312;3026918;-65
2022/08/03 03:31:07;;;;;;;38.10;21.30;;;;;;;22.52;70.72;98724.70;25151;1315;3027200;-66
2022/08/03 03:33:36;;;;;;;43.60;24.00;;;;;;;22.38;71.31;98721.77;25170;1312;3027687;-68
2022/08/03 03:36:05;;;;;;;39.90;21.50;;;;;;;22.23;71.61;98715.69;25199;1312;3027801;-67
2022/08/03 03:38:35;;;;;;;27.70;16.90;;;;;;;22.13;72.18;98713.30;25137;1313;3027126;-66
2022/08/03 03:41:04;;;;;;;32.40;19.60;;;;;;;22.65;70.97;98712.00;25179;1312;3051906;-67
2022/08/03 03:43:33;;;;;;;40.90;21.80;;;;;;;23.11;69.36;98711.76;25120;1312;3029988;-67
2022/08/03 03:46:02;;;;;;;36.60;21.80;;;;;;;23.09;68.94;98710.83;25185;1312;3051882;-67
2022/08/03 03:48:31;;;;;;;37.90;21.90;;;;;;;22.95;69.20;98713.38;25156;1312;3026227;-67
2022/08/03 03:51:00;;;;;;;41.20;24.00;;;;;;;22.74;69.97;98714.82;25127;1312;3048236;-68
2022/08/03 03:53:29;;;;;;;41.60;24.10;;;;;;;22.55;70.66;98712.55;25141;1312;3029155;-66
2022/08/03 03:55:58;;;;;;;51.00;24.70;;;;;;;22.38;71.22;98715.61;25141;1312;3070053;-68
2022/08/03 03:58:27;;;;;;;33.00;18.50;;;;;;;22.24;71.84;98714.77;25170;1312;3026556;-65
2022/08/03 04:00:56;;;;;;;34.60;20.00;;;;;;;22.67;70.92;98718.94;25174;1312;3051374;-69
2022/08/03 04:03:25;;;;;;;38.40;23.20;;;;;;;23.05;69.61;98719.64;25177;1312;3027486;-65
2022/08/03 04:11:35;;;;;;;46.60;24.80;;;;;;;22.61;71.07;98722.67;25173;1312;3071041;-67
2022/08/03 04:14:12;;;;;;;46.70;26.80;;;;;;;22.47;71.64;98722.42;25153;1312;3049319;-68
2022/08/03 04:16:49;;;;;;;38.20;19.60;;;;;;;22.37;71.97;98725.67;25157;1312;3052148;-68
2022/08/03 04:19:31;;;;;;;37.90;23.00;;;;;;;22.82;70.72;98718.35;25168;1313;3052045;-67
2022/08/03 04:22:03;;;;;;;40.60;23.60;;;;;;;23.19;69.63;98726.30;25201;1312;3056540;-67
2022/08/03 04:24:37;;;;;;;44.60;25.80;;;;;;;23.14;69.53;98727.04;25170;1313;3052849;-65
2022/08/03 04:27:07;;;;;;;51.00;28.10;;;;;;;22.97;69.89;98728.67;25191;1312;3027219;-67
2022/08/03 04:29:39;;;;;;;61.00;33.10;;;;;;;22.75;70.47;98728.05;25183;1312;3028550;-68
2022/08/03 04:32:08;;;;;;;59.10;34.10;;;;;;;22.54;71.36;98736.42;25197;1312;3027801;-66
2022/08/03 04:34:37;;;;;;;42.20;23.80;;;;;;;22.39;72.08;98732.86;25148;1312;3027095;-67
2022/08/03 04:37:11;;;;;;;54.70;29.40;;;;;;;22.83;71.28;98729.66;25180;1312;3026327;-67
2022/08/03 04:39:41;;;;;;;;;;;;;;;23.23;69.81;98726.84;25239;1312;3069947;-68
2022/08/03 04:42:10;;;;;;;53.10;28.60;;;;;;;23.32;69.56;98735.58;25190;1312;3031021;-68
2022/08/03 04:44:41;;;;;;;55.40;30.00;;;;;;;23.25;69.63;98731.75;25165;1312;3026488;-67
2022/08/03 04:47:10;;;;;;;58.50;31.60;;;;;;;23.13;70.24;98733.08;25162;1312;3030450;-66
2022/08/03 04:49:39;;;;;;;52.20;31.90;;;;;;;23.04;70.40;98733.77;25209;1312;3026398;-66
2022/08/03 04:52:08;;;;;;;56.20;28.90;;;;;;;22.98;70.51;98738.33;25148;1312;3051784;-65
2022/08/03 04:54:44;;;;;;;41.70;23.50;;;;;;;22.86;71.36;98734.39;25172;1312;3026441;-68
2022/08/03 04:57:13;;;;;;;42.40;25.40;;;;;;;23.38;69.87;98738.33;25200;1313;3049899;-66
2022/08/03 04:59:42;;;;;;;44.30;26.20;;;;;;;23.92;67.85;98734.73;25159;1312;3026703;-67
2022/08/03 05:02:11;;;;;;;45.90;27.20;;;;;;;24.09;66.73;98739.05;25165;1312;3068387;-70
2022/08/03 05:04:45;;;;;;;45.80;25.60;;;;;;;24.05;66.54;98742.04;25175;1312;3028215;-68
2022/08/03 05:07:15;;;;;;;45.10;26.40;;;;;;;24.05;66.50;98742.91;25197;1312;3050375;-68
2022/08/03 05:09:44;;;;;;;47.60;27.60;;;;;;;24.02;66.56;98747.44;25202;1312;3026488;-66
2022/08/03 05:12:13;;;;;;;44.70;26.90;;;;;;;23.91;66.85;98749.01;25232;1312;3028497;-65
2022/08/03 05:14:42;;;;;;;46.40;27.40;;;;;;;23.87;67.26;98749.84;25354;1312;3050620;-63
2022/08/03 05:17:11;;;;;;;35.90;19.70;;;;;;;23.92;67.18;98748.39;25467;1312;3026733;-64
2022/08/03 05:19:40;;;;;;;33.60;20.30;;;;;;;24.51;65.72;98746.17;25547;1312;3052826;-67
2022/08/03 05:22:09;;;;;;;41.00;23.80;;;;;;;25.06;63.60;98745.71;25141;1312;3026232;-64
2022/08/03 05:24:38;;;;;;;37.30;22.90;;;;;;;25.18;63.20;98744.86;25216;1311;3052055;-65
2022/08/03 05:27:07;;;;;;;38.10;23.00;;;;;;;25.17;63.17;98746.14;25185;1312;3026441;-67
2022/08/03 05:29:36;;;;;;;41.20;23.20;;;;;;;25.08;63.54;98748.39;25193;1312;3057975;-67
2022/08/03 05:32:05;;;;;;;39.40;24.00;;;;;;;24.89;63.92;98744.52;25183;1312;3027320;-66
2022/08/03 05:34:34;;;;;;;38.50;24.50;;;;;;;24.76;64.17;98746.45;25157;1312;3054364;-68
2022/08/03 05:37:03;;;;;;;40.80;24.80;;;;;;;24.49;64.46;98749.84;25181;1311;3027696;-65
2022/08/03 05:39:33;;;;;;;45.40;25.50;;;;;;;24.35;65.45;98751.89;25173;1312;3052007;-65
2022/08/03 05:42:01;;;;;;;45.20;25.10;;;;;;;24.40;66.08;98748.40;25197;1311;3029716;-64
2022/08/03 05:44:31;;;;;;;33.00;18.50;;;;;;;24.42;66.02;98754.11;25153;1312;3026233;-69
2022/08/03 05:47:00;;;;;;;38.60;21.50;;;;;;;24.97;64.69;98756.06;25099;1313;3051777;-65
2022/08/03 05:49:29;;;;;;;40.20;23.20;;;;;;;25.46;61.96;98756.02;25140;1313;3027237;-66
2022/08/03 05:51:58;;;;;;;35.50;22.50;;;;;;;25.63;61.25;98759.33;25201;1312;3051673;-65
2022/08/03 05:54:26;;;;;;;37.20;23.00;;;;;;;25.52;61.81;98764.91;25155;1312;3028341;-66
2022/08/03 05:56:55;;;;;;;42.30;24.10;;;;;;;25.44;62.58;98767.45;25222;1312;3071150;-67
2022/08/03 05:59:24;;;;;;;41.30;24.40;;;;;;;25.33;62.94;98768.31;25158;1312;3026420;-65
2022/08/03 06:01:53;;;;;;;44.70;26.20;;;;;;;25.20;62.76;98766.44;25191;1312;3051069;-66
2022/08/03 06:04:22;;;;;;;43.80;27.30;;;;;;;25.13;63.26;98768.45;25167;1312;3026450;-67
2022/08/03 06:06:52;;;;;;;47.20;28.30;;;;;;;25.09;63.60;98771.68;25174;1312;3053734;-69
2022/08/03 06:09:21;;;;;;;49.30;28.00;;;;;;;25.06;63.91;98774.32;25220;1312;3026812;-66
2022/08/03 06:11:50;;;;;;;46.30;27.30;;;;;;;25.01;63.87;98776.30;25165;1311;3049296;-65
2022/08/03 06:14:19;;;;;;;44.40;28.00;;;;;;;24.99;64.25;98777.81;25191;1312;3026695;-65
2022/08/03 06:16:48;;;;;;;51.40;28.50;;;;;;;25.03;64.45;98779.36;25158;1312;3055886;-66
2022/08/03 06:19:17;;;;;;;39.30;22.00;;;;;;;25.10;64.38;98781.27;25166;1312;3026960;-65
2022/08/03 06:21:46;;;;;;;42.20;24.20;;;;;;;25.71;63.08;98783.02;25188;1312;3051782;-65
2022/08/03 06:24:15;;;;;;;45.20;27.10;;;;;;;26.24;61.72;98782.87;25164;1312;3026375;-68
2022/08/03 06:26:44;;;;;;;46.50;26.80;;;;;;;26.25;61.18;98784.90;25189;1312;3051597;-67
2022/08/03 06:29:13;;;;;;;50.60;28.90;;;;;;;26.16;61.43;98785.50;25221;1312;3028505;-67
2022/08/03 06:31:42;;;;;;;48.30;30.00;;;;;;;25.99;61.76;98786.60;25174;1312;3028521;-68
2022/08/03 06:34:11;;;;;;;57.10;29.30;;;;;;;25.88;62.49;98784.30;25192;1312;3051555;-68
2022/08/03 06:36:40;;;;;;;58.10;32.40;;;;;;;25.85;62.74;98790.25;25117;1312;3027629;-66
2022/08/03 06:39:11;;;;;;;52.40;31.40;;;;;;;25.73;62.86;98787.70;25214;1312;3050937;-69
2022/08/03 06:41:41;;;;;;;53.40;31.70;;;;;;;25.63;62.95;98790.77;25170;1312;3026409;-65
2022/08/03 06:44:10;;;;;;;53.50;31.80;;;;;;;25.68;62.72;98793.86;25197;1312;3030435;-69
2022/08/03 06:46:41;;;;;;;61.30;31.20;;;;;;;25.65;62.76;98797.27;25176;1312;3026623;-66
2022/08/03 06:49:10;;;;;;;50.30;30.60;;;;;;;25.61;62.59;98798.78;25101;1312;3027547;-66
2022/08/03 06:51:39;;;;;;;47.00;30.20;;;;;;;25.76;62.23;98801.02;25163;1312;3053054;-67
2022/08/03 06:54:08;;;;;;;50.00;30.70;;;;;;;25.89;61.42;98801.72;25159;1312;3026251;-69
2022/08/03 06:56:37;;;;;;;45.60;28.20;;;;;;;26.05;60.10;98798.02;25195;1312;3049837;-67
2022/08/03 06:59:06;;;;;;;47.10;29.70;;;;;;;26.19;59.80;98793.62;25165;1312;3028027;-66
2022/08/03 07:01:35;;;;;;;52.00;30.40;;;;;;;26.34;59.54;98796.77;25171;1312;3055873;-67
2022/08/03 07:04:04;;;;;;;50.30;28.70;;;;;;;26.31;59.67;98794.08;25146;1312;3026317;-68
2022/08/03 07:06:34;;;;;;;59.40;31.30;;;;;;;26.32;59.45;98797.67;25186;1311;3026820;-66
2022/08/03 07:09:03;;;;;;;52.20;30.30;;;;;;;26.47;59.51;98793.36;25134;1312;3055217;-67
2022/08/03 07:11:32;;;;;;;52.10;31.60;;;;;;;26.57;59.11;98795.84;25167;1312;3027997;-66
2022/08/03 07:14:01;;;;;;;52.40;30.90;;;;;;;26.70;58.99;98795.19;25157;1312;3026950;-65
2022/08/03 07:16:35;;;;;;;47.80;30.00;;;;;;;26.89;59.14;98797.95;25108;1312;3059308;-67
2022/08/03 07:19:04;;;;;;;48.60;30.70;;;;;;;27.02;58.70;98795.94;25140;1312;3026198;-66
2022/08/03 07:21:33;;;;;;;54.10;32.10;;;;;;;27.08;57.85;98798.02;25184;1312;3051955;-68
2022/08/03 07:24:03;;;;;;;57.30;32.20;;;;;;;27.15;57.76;98798.05;25159;1312;3026731;-66
2022/08/03 07:26:32;;;;;;;54.10;32.40;;;;;;;27.28;57.75;98796.52;25205;1312;3051362;-67
2022/08/03 07:29:01;;;;;;;50.90;32.50;;;;;;;27.42;57.65;98792.30;25138;1312;3026750;-67
2022/08/03 07:31:29;;;;;;;54.00;32.20;;;;;;;27.55;57.61;98792.77;25183;1312;3048887;-68
2022/08/03 07:33:58;;;;;;;53.20;31.40;;;;;;;27.66;57.57;98792.40;25149;1312;3026201;-68
2022/08/03 07:36:27;;;;;;;51.90;32.50;;;;;;;27.68;57.77;98792.42;25228;1312;3066944;-67
2022/08/03 07:38:57;;;;;;;53.00;32.00;;;;;;;27.73;57.64;98795.08;25150;1312;3026801;-66
2022/08/03 07:41:25;;;;;;;54.40;32.20;;;;;;;27.89;57.58;98795.42;25224;1312;3053127;-67
2022/08/03 07:43:54;;;;;;;52.30;32.50;;;;;;;28.03;56.85;98796.52;25161;1312;3026457;-66
2022/08/03 07:46:23;;;;;;;56.00;32.80;;;;;;;28.13;56.38;98801.79;25177;1312;3054694;-68
2022/08/03 07:48:52;;;;;;;52.10;31.00;;;;;;;28.13;55.81;98806.30;25189;1312;3027634;-68
2022/08/03 07:51:21;;;;;;;53.20;31.80;;;;;;;28.07;55.49;98810.11;25188;1312;3050320;-65
2022/08/03 07:53:50;;;;;;;67.80;33.60;;;;;;;27.91;55.94;98810.73;25158;1312;3027043;-69
2022/08/03 07:56:20;;;;;;;56.70;33.20;;;;;;;27.80;56.70;98814.67;25182;1312;3055570;-69
2022/08/03 07:58:50;;;;;;;53.60;32.70;;;;;;;27.70;57.26;98815.14;25145;1311;3026787;-68
2022/08/03 08:01:19;;;;;;;52.00;32.40;;;;;;;27.63;57.62;98812.93;25157;1312;3030626;-64
2022/08/03 08:03:48;;;;;;;51.50;33.10;;;;;;;27.69;57.41;98809.01;25204;1312;3026611;-64
2022/08/03 08:06:17;;;;;;;58.50;32.20;;;;;;;27.66;57.76;98812.14;25158;1312;3049038;-70
2022/08/03 08:08:46;;;;;;;56.20;31.70;;;;;;;27.56;57.88;98814.30;25205;1312;3028494;-66
2022/08/03 08:11:15;;;;;;;61.50;31.90;;;;;;;27.40;58.36;98817.08;25147;1312;3054708;-66
2022/08/03 08:15:23;;;;;;;66.30;38.30;;;;;;;27.32;58.42;98822.60;31378;1318;3025889;-68
2022/08/03 08:17:54;;;;;;;65.90;40.00;;;;;;;27.44;58.16;98817.21;25009;1319;3026994;-68
2022/08/03 08:20:27;;;;;;;63.40;35.00;;;;;;;27.48;57.94;98822.70;24997;1319;3029012;-68
2022/08/03 08:23:00;;;;;;;58.00;35.30;;;;;;;27.18;59.10;98823.91;25040;1318;3058779;-64
2022/08/03 08:25:30;;;;;;;65.10;34.60;;;;;;;27.07;59.69;98831.49;24998;1315;3026861;-62
2022/08/03 08:28:01;;;;;;;57.20;34.30;;;;;;;26.98;59.75;98827.35;24907;1315;3309462;-65
2022/08/03 08:30:31;;;;;;;62.30;34.30;;;;;;;26.92;59.81;98830.09;25124;1315;3026865;-65
2022/08/03 08:33:00;;;;;;;68.30;33.90;;;;;;;26.84;60.12;98828.14;25066;1316;3026550;-66
2022/08/03 08:35:29;;;;;;;55.30;33.40;;;;;;;26.69;60.39;98830.69;25090;1315;3026575;-64
2022/08/03 08:38:01;;;;;;;55.70;33.60;;;;;;;26.64;60.52;98832.79;25066;1313;3048991;-61
2022/08/03 08:40:30;;;;;;;56.60;33.30;;;;;;;26.67;60.78;98830.98;25041;1315;3026778;-60
2022/08/03 08:42:59;;;;;;;57.80;34.80;;;;;;;26.71;60.73;98827.97;25112;1315;3026506;-62
2022/08/03 08:45:28;;;;;;;58.70;35.30;;;;;;;26.75;61.42;98827.14;25029;1315;3053147;-59
2022/08/03 08:47:59;;;;;;;67.00;36.00;;;;;;;26.77;61.09;98829.40;25099;1313;3026876;-63
2022/08/03 08:50:34;;;;;;;64.20;34.20;;;;;;;26.77;61.37;98829.52;25049;1316;3051890;-64
2022/08/03 08:53:03;;;;;;;63.10;35.30;;;;;;;26.75;60.57;98825.98;25122;1315;3026425;-65
2022/08/03 08:55:33;;;;;;;64.60;33.80;;;;;;;26.77;60.30;98824.77;25007;1315;3071771;-65
2022/08/03 08:58:04;;;;;;;65.60;35.80;;;;;;;26.84;60.18;98822.16;25003;1315;3026673;-62
2022/08/03 09:00:33;;;;;;;59.50;34.20;;;;;;;26.90;59.98;98819.94;25078;1315;3051031;-62
2022/08/03 09:03:03;;;;;;;65.30;37.40;;;;;;;26.96;59.51;98821.52;25086;1315;3026070;-66
2022/08/03 09:05:32;;;;;;;81.40;44.30;;;;;;;27.00;59.48;98822.66;25104;1313;3026716;-63
2022/08/03 09:08:01;;;;;;;95.30;47.60;;;;;;;26.91;59.66;98824.98;25124;1315;3026615;-62
2022/08/03 09:10:34;;;;;;;90.50;46.50;;;;;;;26.84;60.20;98823.95;24981;1315;3069155;-63
2022/08/03 09:13:03;;;;;;;96.60;49.40;;;;;;;26.78;60.56;98825.17;25087;1315;3029360;-62
2022/08/03 09:15:32;;;;;;;95.90;47.30;;;;;;;26.79;60.67;98822.64;25042;1315;3026429;-61
2022/08/03 09:18:02;;;;;;;100.00;51.30;;;;;;;26.71;60.85;98829.17;25053;1313;3069324;-64
2022/08/03 09:20:32;;;;;;;97.70;47.70;;;;;;;26.77;60.85;98829.39;25083;1313;3029316;-63
2022/08/03 09:23:03;;;;;;;94.20;47.60;;;;;;;26.74;61.25;98833.39;25069;1315;3026608;-62
2022/08/03 09:25:34;;;;;;;98.30;48.60;;;;;;;26.81;60.34;98833.53;25115;1314;3026279;-63
2022/08/03 09:28:11;;;;;;;80.40;43.60;;;;;;;26.89;59.99;98834.98;25016;1318;3027090;-65
2022/08/03 09:30:41;;;;;;;87.80;45.40;;;;;;;26.88;59.57;98835.41;25134;1315;3049411;-66
2022/08/03 09:33:12;;;;;;;99.80;48.00;;;;;;;26.85;59.72;98845.41;25239;1315;3026220;-62
2022/08/03 09:35:45;;;;;;;102.00;49.60;;;;;;;26.89;59.84;98847.26;25086;1313;3026814;-64
2022/08/03 09:38:16;;;;;;;104.90;47.90;;;;;;;27.05;59.43;98843.10;25096;1315;3069260;-63
2022/08/03 09:40:45;;;;;;;92.00;47.70;;;;;;;27.33;58.13;98846.19;25075;1313;3026972;-64
2022/08/03 09:43:14;;;;;;;98.20;48.50;;;;;;;27.56;57.46;98853.28;25116;1313;3026539;-64
2022/08/03 09:45:43;;;;;;;75.30;42.70;;;;;;;27.67;57.33;98854.83;25050;1313;3069262;-62
2022/08/03 09:48:19;;;;;;;65.30;34.40;;;;;;;27.63;56.22;98854.39;25091;1315;3027682;-66
2022/08/03 09:50:49;;;;;;;46.70;28.20;;;;;;;27.59;55.51;98858.61;25133;1315;3052343;-62
2022/08/03 09:53:18;;;;;;;43.10;25.30;;;;;;;27.60;54.72;98856.98;25091;1313;3026974;-64
2022/08/03 09:55:54;;;;;;;36.50;21.70;;;;;;;27.67;53.24;98864.45;25052;1313;3026634;-66
2022/08/03 09:58:24;;;;;;;40.20;21.60;;;;;;;27.71;50.71;98862.79;25073;1313;3052834;-64
2022/08/03 10:01:02;;;;;;;40.10;21.80;;;;;;;27.92;50.77;98860.92;25034;1315;3026066;-60
2022/08/03 10:03:34;;;;;;;41.50;23.60;;;;;;;28.13;50.56;98863.58;25085;1313;3056708;-64
2022/08/03 10:06:19;;;;;;;34.20;20.90;;;;;;;28.40;49.62;98859.66;25037;1315;3026488;-61
2022/08/03 10:09:15;;;;;;;38.10;21.50;;;;;;;28.57;48.47;98850.00;25158;1313;3055807;-63
2022/08/03 10:11:45;;;;;;;35.70;22.00;;;;;;;28.70;48.51;98850.75;25082;1315;3053727;-62
2022/08/03 10:14:17;;;;;;;40.30;22.90;;;;;;;28.74;48.92;98853.60;25084;1313;3027045;-64
2022/08/03 10:16:47;;;;;;;36.40;22.40;;;;;;;28.77;48.55;98851.86;25113;1315;3026555;-61
2022/08/03 10:19:17;;;;;;;35.40;22.20;;;;;;;28.79;48.63;98852.13;25107;1315;3028500;-61
2022/08/03 10:21:48;;;;;;;34.90;20.80;;;;;;;28.64;48.39;98855.25;25030;1313;3026728;-62
2022/08/03 10:24:22;;;;;;;33.70;21.00;;;;;;;28.70;48.43;98862.69;25047;1314;3029622;-62
2022/08/03 10:26:52;;;;;;;61.20;34.70;;;;;;;28.70;51.50;98867.52;25009;1318;3053223;-63
2022/08/03 10:29:23;;;;;;;75.40;36.50;;;;;;;28.52;53.63;98879.55;25042;1313;3026906;-61
2022/08/03 10:31:54;;;;;;;57.90;33.10;;;;;;;27.95;54.90;98883.73;25126;1315;3026854;-61
2022/08/03 10:34:26;;;;;;;60.90;32.60;;;;;;;27.48;56.58;98882.29;25090;1313;3027233;-61
2022/08/03 10:36:56;;;;;;;54.10;30.80;;;;;;;27.25;56.98;98874.48;25076;1313;3026631;-61
2022/08/03 10:39:27;;;;;;;49.50;29.30;;;;;;;27.18;56.86;98869.50;25079;1313;3026224;-63
2022/08/03 10:41:57;;;;;;;47.90;25.50;;;;;;;27.21;55.55;98863.94;25121;1313;3026993;-64
2022/08/03 10:44:31;;;;;;;41.60;22.90;;;;;;;26.96;55.29;98873.10;25113;1315;3026615;-61
2022/08/03 10:47:00;;;;;;;44.70;22.30;;;;;;;27.02;54.68;98879.16;25080;1315;3051574;-62
2022/08/03 10:49:29;;;;;;;43.10;22.40;;;;;;;26.97;54.53;98887.92;25025;1315;3026972;-63
2022/08/03 10:51:59;;;;;;;47.70;23.00;;;;;;;27.07;53.52;98892.95;25090;1314;3056494;-60
2022/08/03 10:57:33;;;;;;;50.90;22.20;;;;;;;27.24;52.73;98896.30;25057;1315;3027094;-63
2022/08/03 10:57:50;;;;;;;34.60;17.30;;;;;;;27.30;53.18;98899.02;25092;1315;3055522;-65
2022/08/03 11:00:20;;;;;;;34.10;16.20;;;;;;;27.31;52.99;98892.48;25096;1313;3050568;-65
2022/08/03 11:03:20;;;;;;;29.30;15.30;;;;;;;27.31;53.01;98889.34;25048;1313;3026676;-60
2022/08/03 11:05:51;;;;;;;27.70;14.30;;;;;;;27.35;51.80;98886.63;25077;1313;3051746;-64
2022/08/03 11:08:33;;;;;;;40.10;14.20;;;;;;;27.44;51.53;98879.27;25076;1315;3026296;-62
2022/08/03 11:11:18;;;;;;;26.00;12.90;;;;;;;27.44;51.07;98884.27;25101;1313;3055041;-63
2022/08/03 11:13:58;;;;;;;29.50;14.00;;;;;;;27.26;51.14;98892.20;25071;1313;3059355;-61
2022/08/03 11:16:28;;;;;;;27.10;14.20;;;;;;;27.27;51.03;98889.77;25062;1315;3049486;-61
2022/08/03 11:19:04;;;;;;;30.10;13.90;;;;;;;27.29;51.17;98897.10;25073;1315;3028520;-59
2022/08/03 11:21:52;;;;;;;35.40;16.10;;;;;;;27.17;51.68;98902.23;25076;1315;3053688;-61
2022/08/03 11:24:37;;;;;;;39.90;18.40;;;;;;;27.06;52.24;98908.92;25076;1315;3071723;-63
2022/08/03 11:27:26;;;;;;;46.10;20.80;;;;;;;27.19;52.44;98903.60;25089;1315;3049603;-60